sensor_id;sensor_type;location;lat;lon;timestamp;P1;durP1;ratioP1;P2;durP2;ratioP2
65924;SDS011;66010;52.084;5.412;2023-02-28T00:00:26;6.00;;;2.80;;
65924;SDS011;66010;52.084;5.412;2023-02-28T00:02:53;7.97;;;2.97;;
65924;SDS011;66010;52.084;5.412;2023-02-28T00:05:20;8.25;;;3.13;;
65924;SDS011;66010;52.084;5.412;2023-02-28T00:07:47;6.65;;;2.70;;
65924;SDS011;66010;52.084;5.412;2023-02-28T00:10:15;8.13;;;2.78;;
65924;SDS011;66010;52.084;5.412;2023-02-28T00:12:45;8.02;;;2.75;;
65924;SDS011;66010;52.084;5.412;2023-02-28T00:15:11;4.72;;;2.58;;
65924;SDS011;66010;52.084;5.412;2023-02-28T00:17:38;5.72;;;2.88;;
65924;SDS011;66010;52.084;5.412;2023-02-28T00:20:05;4.78;;;2.40;;
65924;SDS011;66010;52.084;5.412;2023-02-28T00:22:36;5.45;;;2.53;;
65924;SDS011;66010;52.084;5.412;2023-02-28T00:25:03;5.20;;;2.38;;
65924;SDS011;66010;52.084;5.412;2023-02-28T00:27:30;6.38;;;2.70;;
65924;SDS011;66010;52.084;5.412;2023-02-28T00:29:56;5.68;;;2.50;;
65924;SDS011;66010;52.084;5.412;2023-02-28T00:32:23;5.80;;;2.75;;
65924;SDS011;66010;52.084;5.412;2023-02-28T00:34:49;5.57;;;2.08;;
65924;SDS011;66010;52.084;5.412;2023-02-28T00:37:16;5.18;;;2.35;;
65924;SDS011;66010;52.084;5.412;2023-02-28T00:39:42;5.32;;;2.33;;
65924;SDS011;66010;52.084;5.412;2023-02-28T00:42:09;5.50;;;2.42;;
65924;SDS011;66010;52.084;5.412;2023-02-28T00:44:35;6.32;;;2.65;;
65924;SDS011;66010;52.084;5.412;2023-02-28T00:47:01;5.70;;;2.50;;
65924;SDS011;66010;52.084;5.412;2023-02-28T00:49:28;8.00;;;2.92;;
65924;SDS011;66010;52.084;5.412;2023-02-28T00:51:54;9.23;;;2.28;;
65924;SDS011;66010;52.084;5.412;2023-02-28T00:54:21;5.65;;;1.83;;
65924;SDS011;66010;52.084;5.412;2023-02-28T00:56:48;6.60;;;2.05;;
65924;SDS011;66010;52.084;5.412;2023-02-28T00:59:15;6.88;;;1.90;;
65924;SDS011;66010;52.084;5.412;2023-02-28T01:01:43;3.65;;;1.70;;
65924;SDS011;66010;52.084;5.412;2023-02-28T01:04:10;7.07;;;2.10;;
65924;SDS011;66010;52.084;5.412;2023-02-28T01:06:37;5.38;;;2.03;;
65924;SDS011;66010;52.084;5.412;2023-02-28T01:09:04;5.07;;;1.83;;
65924;SDS011;66010;52.084;5.412;2023-02-28T01:11:31;5.28;;;2.30;;
65924;SDS011;66010;52.084;5.412;2023-02-28T01:13:58;6.43;;;2.15;;
65924;SDS011;66010;52.084;5.412;2023-02-28T01:16:25;5.00;;;2.13;;
65924;SDS011;66010;52.084;5.412;2023-02-28T01:18:51;4.93;;;1.95;;
65924;SDS011;66010;52.084;5.412;2023-02-28T01:21:19;5.82;;;1.95;;
65924;SDS011;66010;52.084;5.412;2023-02-28T01:23:46;5.63;;;2.00;;
65924;SDS011;66010;52.084;5.412;2023-02-28T01:26:22;4.90;;;1.90;;
65924;SDS011;66010;52.084;5.412;2023-02-28T01:28:49;4.25;;;1.80;;
65924;SDS011;66010;52.084;5.412;2023-02-28T01:31:16;4.20;;;1.90;;
65924;SDS011;66010;52.084;5.412;2023-02-28T01:33:42;6.60;;;2.10;;
65924;SDS011;66010;52.084;5.412;2023-02-28T01:36:10;4.13;;;1.90;;
65924;SDS011;66010;52.084;5.412;2023-02-28T01:38:36;5.45;;;2.00;;
65924;SDS011;66010;52.084;5.412;2023-02-28T01:41:03;4.43;;;1.90;;
65924;SDS011;66010;52.084;5.412;2023-02-28T01:46:11;4.15;;;1.90;;
65924;SDS011;66010;52.084;5.412;2023-02-28T01:48:40;5.45;;;2.00;;
65924;SDS011;66010;52.084;5.412;2023-02-28T01:51:10;5.65;;;2.15;;
65924;SDS011;66010;52.084;5.412;2023-02-28T01:53:39;4.80;;;1.90;;
65924;SDS011;66010;52.084;5.412;2023-02-28T01:56:07;4.05;;;1.90;;
65924;SDS011;66010;52.084;5.412;2023-02-28T01:58:34;5.15;;;1.92;;
65924;SDS011;66010;52.084;5.412;2023-02-28T02:01:02;5.20;;;1.85;;
65924;SDS011;66010;52.084;5.412;2023-02-28T02:03:29;4.97;;;1.98;;
65924;SDS011;66010;52.084;5.412;2023-02-28T02:05:56;6.03;;;1.80;;
65924;SDS011;66010;52.084;5.412;2023-02-28T02:08:24;5.63;;;1.75;;
65924;SDS011;66010;52.084;5.412;2023-02-28T02:10:52;4.68;;;1.83;;
65924;SDS011;66010;52.084;5.412;2023-02-28T02:13:26;4.45;;;1.80;;
65924;SDS011;66010;52.084;5.412;2023-02-28T02:18:46;4.65;;;1.85;;
65924;SDS011;66010;52.084;5.412;2023-02-28T02:31:26;6.32;;;2.00;;
65924;SDS011;66010;52.084;5.412;2023-02-28T02:34:06;5.00;;;1.80;;
65924;SDS011;66010;52.084;5.412;2023-02-28T02:36:38;4.03;;;1.90;;
65924;SDS011;66010;52.084;5.412;2023-02-28T02:39:11;5.75;;;1.90;;
65924;SDS011;66010;52.084;5.412;2023-02-28T02:41:45;4.40;;;1.95;;
65924;SDS011;66010;52.084;5.412;2023-02-28T02:44:15;5.13;;;1.73;;
65924;SDS011;66010;52.084;5.412;2023-02-28T02:46:45;5.03;;;1.75;;
65924;SDS011;66010;52.084;5.412;2023-02-28T02:49:16;7.88;;;2.03;;
65924;SDS011;66010;52.084;5.412;2023-02-28T02:51:44;5.32;;;1.73;;
65924;SDS011;66010;52.084;5.412;2023-02-28T02:54:26;6.43;;;1.95;;
65924;SDS011;66010;52.084;5.412;2023-02-28T02:56:55;4.50;;;1.63;;
65924;SDS011;66010;52.084;5.412;2023-02-28T02:59:23;6.03;;;2.05;;
65924;SDS011;66010;52.084;5.412;2023-02-28T03:01:57;4.18;;;1.80;;
65924;SDS011;66010;52.084;5.412;2023-02-28T03:04:26;4.07;;;1.83;;
65924;SDS011;66010;52.084;5.412;2023-02-28T03:06:54;5.13;;;1.85;;
65924;SDS011;66010;52.084;5.412;2023-02-28T03:09:21;5.15;;;1.90;;
65924;SDS011;66010;52.084;5.412;2023-02-28T03:11:48;5.78;;;1.95;;
65924;SDS011;66010;52.084;5.412;2023-02-28T03:14:21;5.75;;;1.75;;
65924;SDS011;66010;52.084;5.412;2023-02-28T03:27:01;4.93;;;2.05;;
65924;SDS011;66010;52.084;5.412;2023-02-28T03:29:35;4.72;;;1.95;;
65924;SDS011;66010;52.084;5.412;2023-02-28T03:34:34;5.20;;;1.63;;
65924;SDS011;66010;52.084;5.412;2023-02-28T03:37:02;4.30;;;1.80;;
65924;SDS011;66010;52.084;5.412;2023-02-28T03:39:40;4.45;;;1.73;;
65924;SDS011;66010;52.084;5.412;2023-02-28T03:42:15;4.68;;;1.80;;
65924;SDS011;66010;52.084;5.412;2023-02-28T03:44:45;5.32;;;2.03;;
65924;SDS011;66010;52.084;5.412;2023-02-28T03:47:17;4.85;;;1.98;;
65924;SDS011;66010;52.084;5.412;2023-02-28T03:49:54;4.93;;;2.20;;
65924;SDS011;66010;52.084;5.412;2023-02-28T03:52:24;4.90;;;1.92;;
65924;SDS011;66010;52.084;5.412;2023-02-28T03:54:52;4.28;;;2.00;;
65924;SDS011;66010;52.084;5.412;2023-02-28T03:59:51;5.35;;;2.20;;
65924;SDS011;66010;52.084;5.412;2023-02-28T04:02:19;4.70;;;1.70;;
65924;SDS011;66010;52.084;5.412;2023-02-28T04:04:46;4.43;;;1.85;;
65924;SDS011;66010;52.084;5.412;2023-02-28T04:07:15;4.60;;;2.00;;
65924;SDS011;66010;52.084;5.412;2023-02-28T04:09:41;4.13;;;1.80;;
65924;SDS011;66010;52.084;5.412;2023-02-28T04:12:08;5.15;;;2.00;;
65924;SDS011;66010;52.084;5.412;2023-02-28T04:14:34;5.15;;;2.00;;
65924;SDS011;66010;52.084;5.412;2023-02-28T04:17:01;5.50;;;1.85;;
65924;SDS011;66010;52.084;5.412;2023-02-28T04:19:27;3.88;;;1.60;;
65924;SDS011;66010;52.084;5.412;2023-02-28T04:21:54;5.03;;;2.15;;
65924;SDS011;66010;52.084;5.412;2023-02-28T04:24:21;4.78;;;1.95;;
65924;SDS011;66010;52.084;5.412;2023-02-28T04:26:49;4.15;;;1.88;;
65924;SDS011;66010;52.084;5.412;2023-02-28T04:29:20;4.10;;;1.70;;
65924;SDS011;66010;52.084;5.412;2023-02-28T04:31:46;4.43;;;1.90;;
65924;SDS011;66010;52.084;5.412;2023-02-28T04:34:13;4.07;;;1.85;;
65924;SDS011;66010;52.084;5.412;2023-02-28T04:36:39;5.20;;;1.90;;
65924;SDS011;66010;52.084;5.412;2023-02-28T04:39:06;4.30;;;1.92;;
65924;SDS011;66010;52.084;5.412;2023-02-28T04:41:32;5.07;;;1.77;;
65924;SDS011;66010;52.084;5.412;2023-02-28T04:43:59;5.50;;;1.90;;
65924;SDS011;66010;52.084;5.412;2023-02-28T04:46:26;6.03;;;1.80;;
65924;SDS011;66010;52.084;5.412;2023-02-28T04:48:52;5.13;;;1.77;;
65924;SDS011;66010;52.084;5.412;2023-02-28T04:51:20;4.88;;;1.70;;
65924;SDS011;66010;52.084;5.412;2023-02-28T04:53:46;3.45;;;1.70;;
65924;SDS011;66010;52.084;5.412;2023-02-28T04:56:14;5.53;;;2.00;;
65924;SDS011;66010;52.084;5.412;2023-02-28T04:58:41;4.50;;;2.00;;
65924;SDS011;66010;52.084;5.412;2023-02-28T05:04:03;3.90;;;1.50;;
65924;SDS011;66010;52.084;5.412;2023-02-28T05:06:31;4.65;;;1.85;;
65924;SDS011;66010;52.084;5.412;2023-02-28T05:08:58;4.15;;;1.80;;
65924;SDS011;66010;52.084;5.412;2023-02-28T05:13:51;4.60;;;2.10;;
65924;SDS011;66010;52.084;5.412;2023-02-28T05:16:18;3.42;;;1.50;;
65924;SDS011;66010;52.084;5.412;2023-02-28T05:18:45;5.80;;;1.70;;
65924;SDS011;66010;52.084;5.412;2023-02-28T05:24:11;5.68;;;1.60;;
65924;SDS011;66010;52.084;5.412;2023-02-28T05:26:39;4.60;;;1.80;;
65924;SDS011;66010;52.084;5.412;2023-02-28T05:29:06;3.20;;;1.60;;
65924;SDS011;66010;52.084;5.412;2023-02-28T05:31:32;5.30;;;1.90;;
65924;SDS011;66010;52.084;5.412;2023-02-28T05:33:59;5.10;;;1.70;;
65924;SDS011;66010;52.084;5.412;2023-02-28T05:36:25;3.70;;;1.60;;
65924;SDS011;66010;52.084;5.412;2023-02-28T05:38:52;4.90;;;1.60;;
65924;SDS011;66010;52.084;5.412;2023-02-28T05:41:19;4.50;;;1.70;;
65924;SDS011;66010;52.084;5.412;2023-02-28T05:43:46;3.90;;;1.90;;
65924;SDS011;66010;52.084;5.412;2023-02-28T05:46:12;4.70;;;1.60;;
65924;SDS011;66010;52.084;5.412;2023-02-28T05:48:39;6.57;;;1.95;;
65924;SDS011;66010;52.084;5.412;2023-02-28T05:51:06;6.63;;;1.70;;
65924;SDS011;66010;52.084;5.412;2023-02-28T05:53:33;3.80;;;1.63;;
65924;SDS011;66010;52.084;5.412;2023-02-28T05:56:00;3.80;;;1.80;;
65924;SDS011;66010;52.084;5.412;2023-02-28T05:58:26;4.43;;;1.70;;
65924;SDS011;66010;52.084;5.412;2023-02-28T06:00:57;3.08;;;1.60;;
65924;SDS011;66010;52.084;5.412;2023-02-28T06:03:23;4.45;;;1.80;;
65924;SDS011;66010;52.084;5.412;2023-02-28T06:05:50;5.30;;;1.40;;
65924;SDS011;66010;52.084;5.412;2023-02-28T06:08:16;4.78;;;1.80;;
65924;SDS011;66010;52.084;5.412;2023-02-28T06:10:43;4.70;;;1.60;;
65924;SDS011;66010;52.084;5.412;2023-02-28T06:13:09;2.60;;;1.20;;
65924;SDS011;66010;52.084;5.412;2023-02-28T06:15:36;2.88;;;1.50;;
65924;SDS011;66010;52.084;5.412;2023-02-28T06:18:02;3.90;;;1.58;;
65924;SDS011;66010;52.084;5.412;2023-02-28T06:20:29;4.80;;;1.60;;
65924;SDS011;66010;52.084;5.412;2023-02-28T06:22:58;4.47;;;1.75;;
65924;SDS011;66010;52.084;5.412;2023-02-28T06:25:25;4.72;;;1.70;;
65924;SDS011;66010;52.084;5.412;2023-02-28T06:27:52;4.57;;;1.55;;
65924;SDS011;66010;52.084;5.412;2023-02-28T06:30:18;2.95;;;1.52;;
65924;SDS011;66010;52.084;5.412;2023-02-28T06:32:49;4.10;;;1.77;;
65924;SDS011;66010;52.084;5.412;2023-02-28T06:35:16;4.90;;;1.50;;
65924;SDS011;66010;52.084;5.412;2023-02-28T06:37:43;4.22;;;1.50;;
65924;SDS011;66010;52.084;5.412;2023-02-28T06:40:10;7.63;;;1.85;;
65924;SDS011;66010;52.084;5.412;2023-02-28T06:42:39;8.80;;;1.70;;
65924;SDS011;66010;52.084;5.412;2023-02-28T06:45:05;5.10;;;1.60;;
65924;SDS011;66010;52.084;5.412;2023-02-28T06:47:36;4.25;;;1.58;;
65924;SDS011;66010;52.084;5.412;2023-02-28T06:50:03;5.95;;;1.40;;
65924;SDS011;66010;52.084;5.412;2023-02-28T06:52:29;3.83;;;1.58;;
65924;SDS011;66010;52.084;5.412;2023-02-28T06:54:55;4.60;;;1.70;;
65924;SDS011;66010;52.084;5.412;2023-02-28T06:57:29;4.72;;;1.13;;
65924;SDS011;66010;52.084;5.412;2023-02-28T07:00:00;2.70;;;1.33;;
65924;SDS011;66010;52.084;5.412;2023-02-28T07:02:27;4.05;;;1.25;;
65924;SDS011;66010;52.084;5.412;2023-02-28T07:04:53;4.90;;;1.38;;
65924;SDS011;66010;52.084;5.412;2023-02-28T07:07:20;2.08;;;1.10;;
65924;SDS011;66010;52.084;5.412;2023-02-28T07:09:47;2.92;;;1.30;;
65924;SDS011;66010;52.084;5.412;2023-02-28T07:12:13;2.67;;;1.30;;
65924;SDS011;66010;52.084;5.412;2023-02-28T07:14:39;6.18;;;1.33;;
65924;SDS011;66010;52.084;5.412;2023-02-28T07:17:09;4.78;;;1.40;;
65924;SDS011;66010;52.084;5.412;2023-02-28T07:19:38;4.15;;;1.55;;
65924;SDS011;66010;52.084;5.412;2023-02-28T07:22:05;2.53;;;1.10;;
65924;SDS011;66010;52.084;5.412;2023-02-28T07:24:32;5.47;;;1.20;;
65924;SDS011;66010;52.084;5.412;2023-02-28T07:26:59;4.10;;;1.25;;
65924;SDS011;66010;52.084;5.412;2023-02-28T07:29:25;2.05;;;0.98;;
65924;SDS011;66010;52.084;5.412;2023-02-28T07:31:52;3.65;;;1.20;;
65924;SDS011;66010;52.084;5.412;2023-02-28T07:34:20;4.82;;;1.30;;
65924;SDS011;66010;52.084;5.412;2023-02-28T07:36:46;4.85;;;1.27;;
65924;SDS011;66010;52.084;5.412;2023-02-28T07:39:13;4.57;;;1.35;;
65924;SDS011;66010;52.084;5.412;2023-02-28T07:41:39;4.63;;;1.50;;
65924;SDS011;66010;52.084;5.412;2023-02-28T07:44:10;5.85;;;1.20;;
65924;SDS011;66010;52.084;5.412;2023-02-28T07:46:36;5.97;;;1.33;;
65924;SDS011;66010;52.084;5.412;2023-02-28T07:49:04;3.05;;;1.08;;
65924;SDS011;66010;52.084;5.412;2023-02-28T07:51:30;5.00;;;1.30;;
65924;SDS011;66010;52.084;5.412;2023-02-28T07:53:57;4.47;;;1.20;;
65924;SDS011;66010;52.084;5.412;2023-02-28T07:56:24;3.17;;;1.17;;
65924;SDS011;66010;52.084;5.412;2023-02-28T07:58:50;3.30;;;1.30;;
65924;SDS011;66010;52.084;5.412;2023-02-28T08:01:17;4.40;;;1.30;;
65924;SDS011;66010;52.084;5.412;2023-02-28T08:03:44;4.68;;;1.15;;
65924;SDS011;66010;52.084;5.412;2023-02-28T08:06:16;4.45;;;1.13;;
65924;SDS011;66010;52.084;5.412;2023-02-28T08:08:42;3.88;;;1.13;;
65924;SDS011;66010;52.084;5.412;2023-02-28T08:11:10;2.45;;;1.10;;
65924;SDS011;66010;52.084;5.412;2023-02-28T08:13:37;5.78;;;1.27;;
65924;SDS011;66010;52.084;5.412;2023-02-28T08:16:03;3.63;;;1.10;;
65924;SDS011;66010;52.084;5.412;2023-02-28T08:18:30;2.97;;;1.10;;
65924;SDS011;66010;52.084;5.412;2023-02-28T08:20:56;2.50;;;1.10;;
65924;SDS011;66010;52.084;5.412;2023-02-28T08:23:23;2.00;;;1.00;;
65924;SDS011;66010;52.084;5.412;2023-02-28T08:25:53;3.80;;;1.20;;
65924;SDS011;66010;52.084;5.412;2023-02-28T08:28:21;3.83;;;1.02;;
65924;SDS011;66010;52.084;5.412;2023-02-28T08:30:47;2.40;;;1.13;;
65924;SDS011;66010;52.084;5.412;2023-02-28T08:33:15;4.03;;;1.20;;
65924;SDS011;66010;52.084;5.412;2023-02-28T08:35:41;3.65;;;1.15;;
65924;SDS011;66010;52.084;5.412;2023-02-28T08:38:08;5.68;;;1.20;;
65924;SDS011;66010;52.084;5.412;2023-02-28T08:40:34;4.18;;;1.02;;
65924;SDS011;66010;52.084;5.412;2023-02-28T08:43:01;4.97;;;1.10;;
65924;SDS011;66010;52.084;5.412;2023-02-28T08:45:27;2.95;;;1.20;;
65924;SDS011;66010;52.084;5.412;2023-02-28T08:47:54;1.80;;;1.00;;
65924;SDS011;66010;52.084;5.412;2023-02-28T08:50:21;3.50;;;1.25;;
65924;SDS011;66010;52.084;5.412;2023-02-28T08:52:47;4.55;;;1.40;;
65924;SDS011;66010;52.084;5.412;2023-02-28T08:55:14;18.17;;;1.40;;
65924;SDS011;66010;52.084;5.412;2023-02-28T08:57:40;3.95;;;1.30;;
65924;SDS011;66010;52.084;5.412;2023-02-28T09:00:07;1.77;;;1.10;;
65924;SDS011;66010;52.084;5.412;2023-02-28T09:02:34;1.90;;;1.10;;
65924;SDS011;66010;52.084;5.412;2023-02-28T09:05:00;4.45;;;1.20;;
65924;SDS011;66010;52.084;5.412;2023-02-28T09:07:26;3.30;;;1.00;;
65924;SDS011;66010;52.084;5.412;2023-02-28T09:09:53;2.85;;;1.13;;
65924;SDS011;66010;52.084;5.412;2023-02-28T09:12:21;4.35;;;1.20;;
65924;SDS011;66010;52.084;5.412;2023-02-28T09:14:47;3.33;;;1.30;;
65924;SDS011;66010;52.084;5.412;2023-02-28T09:17:14;3.35;;;1.20;;
65924;SDS011;66010;52.084;5.412;2023-02-28T09:19:41;2.08;;;1.10;;
65924;SDS011;66010;52.084;5.412;2023-02-28T09:22:07;4.60;;;1.30;;
65924;SDS011;66010;52.084;5.412;2023-02-28T09:24:35;2.83;;;1.10;;
65924;SDS011;66010;52.084;5.412;2023-02-28T09:27:01;2.90;;;1.20;;
65924;SDS011;66010;52.084;5.412;2023-02-28T09:29:31;3.00;;;1.17;;
65924;SDS011;66010;52.084;5.412;2023-02-28T09:31:58;3.53;;;1.02;;
65924;SDS011;66010;52.084;5.412;2023-02-28T09:34:30;2.58;;;1.02;;
65924;SDS011;66010;52.084;5.412;2023-02-28T09:36:57;2.17;;;1.10;;
65924;SDS011;66010;52.084;5.412;2023-02-28T09:39:24;2.13;;;1.00;;
65924;SDS011;66010;52.084;5.412;2023-02-28T09:41:52;2.63;;;1.00;;
65924;SDS011;66010;52.084;5.412;2023-02-28T09:49:41;2.38;;;1.00;;
65924;SDS011;66010;52.084;5.412;2023-02-28T09:52:26;2.97;;;1.00;;
65924;SDS011;66010;52.084;5.412;2023-02-28T09:54:54;1.60;;;0.90;;
65924;SDS011;66010;52.084;5.412;2023-02-28T09:57:29;2.08;;;0.90;;
65924;SDS011;66010;52.084;5.412;2023-02-28T10:00:03;2.78;;;1.00;;
65924;SDS011;66010;52.084;5.412;2023-02-28T10:05:13;2.05;;;1.05;;
65924;SDS011;66010;52.084;5.412;2023-02-28T10:07:56;2.10;;;1.10;;
65924;SDS011;66010;52.084;5.412;2023-02-28T10:13:20;1.85;;;0.90;;
65924;SDS011;66010;52.084;5.412;2023-02-28T10:15:50;1.00;;;0.90;;
65924;SDS011;66010;52.084;5.412;2023-02-28T10:18:19;1.55;;;0.90;;
65924;SDS011;66010;52.084;5.412;2023-02-28T10:20:47;2.15;;;1.10;;
65924;SDS011;66010;52.084;5.412;2023-02-28T10:25:58;1.73;;;1.00;;
65924;SDS011;66010;52.084;5.412;2023-02-28T10:28:25;1.67;;;0.80;;
65924;SDS011;66010;52.084;5.412;2023-02-28T10:30:53;1.17;;;0.80;;
65924;SDS011;66010;52.084;5.412;2023-02-28T10:33:29;2.05;;;0.93;;
65924;SDS011;66010;52.084;5.412;2023-02-28T10:35:57;1.90;;;1.05;;
65924;SDS011;66010;52.084;5.412;2023-02-28T10:38:25;2.72;;;1.00;;
65924;SDS011;66010;52.084;5.412;2023-02-28T10:40:52;1.88;;;0.90;;
65924;SDS011;66010;52.084;5.412;2023-02-28T10:43:29;3.38;;;1.20;;
65924;SDS011;66010;52.084;5.412;2023-02-28T10:46:00;1.00;;;0.90;;
65924;SDS011;66010;52.084;5.412;2023-02-28T10:48:47;2.13;;;1.00;;
65924;SDS011;66010;52.084;5.412;2023-02-28T10:51:16;2.85;;;1.20;;
65924;SDS011;66010;52.084;5.412;2023-02-28T10:53:48;0.93;;;0.80;;
65924;SDS011;66010;52.084;5.412;2023-02-28T10:56:26;2.42;;;0.90;;
65924;SDS011;66010;52.084;5.412;2023-02-28T10:59:03;1.42;;;0.80;;
65924;SDS011;66010;52.084;5.412;2023-02-28T11:01:46;1.08;;;0.80;;
65924;SDS011;66010;52.084;5.412;2023-02-28T11:09:29;1.83;;;0.90;;
65924;SDS011;66010;52.084;5.412;2023-02-28T11:11:56;6.05;;;0.90;;
65924;SDS011;66010;52.084;5.412;2023-02-28T11:14:30;1.98;;;0.60;;
65924;SDS011;66010;52.084;5.412;2023-02-28T11:17:00;2.45;;;0.90;;
65924;SDS011;66010;52.084;5.412;2023-02-28T11:19:28;4.05;;;0.90;;
65924;SDS011;66010;52.084;5.412;2023-02-28T11:21:59;0.98;;;0.80;;
65924;SDS011;66010;52.084;5.412;2023-02-28T11:24:36;1.25;;;0.80;;
65924;SDS011;66010;52.084;5.412;2023-02-28T11:27:03;0.80;;;0.70;;
65924;SDS011;66010;52.084;5.412;2023-02-28T11:29:31;2.42;;;0.80;;
65924;SDS011;66010;52.084;5.412;2023-02-28T11:32:18;2.60;;;0.80;;
65924;SDS011;66010;52.084;5.412;2023-02-28T11:34:46;1.88;;;0.90;;
65924;SDS011;66010;52.084;5.412;2023-02-28T11:37:17;2.08;;;0.90;;
65924;SDS011;66010;52.084;5.412;2023-02-28T11:39:44;1.85;;;0.68;;
65924;SDS011;66010;52.084;5.412;2023-02-28T11:42:27;1.77;;;0.80;;
65924;SDS011;66010;52.084;5.412;2023-02-28T11:47:47;1.33;;;0.90;;
65924;SDS011;66010;52.084;5.412;2023-02-28T11:50:16;1.08;;;0.80;;
65924;SDS011;66010;52.084;5.412;2023-02-28T11:52:56;1.63;;;0.73;;
65924;SDS011;66010;52.084;5.412;2023-02-28T12:06:18;0.80;;;0.70;;
65924;SDS011;66010;52.084;5.412;2023-02-28T12:08:53;0.93;;;0.70;;
65924;SDS011;66010;52.084;5.412;2023-02-28T12:24:55;2.33;;;0.85;;
65924;SDS011;66010;52.084;5.412;2023-02-28T12:27:27;1.00;;;0.80;;
65924;SDS011;66010;52.084;5.412;2023-02-28T12:34:49;1.42;;;0.75;;
65924;SDS011;66010;52.084;5.412;2023-02-28T12:37:17;1.83;;;0.85;;
65924;SDS011;66010;52.084;5.412;2023-02-28T12:39:47;0.95;;;0.70;;
65924;SDS011;66010;52.084;5.412;2023-02-28T12:42:18;0.60;;;0.60;;
65924;SDS011;66010;52.084;5.412;2023-02-28T12:44:48;1.00;;;0.57;;
65924;SDS011;66010;52.084;5.412;2023-02-28T12:47:16;0.60;;;0.50;;
65924;SDS011;66010;52.084;5.412;2023-02-28T12:52:09;1.45;;;0.60;;
65924;SDS011;66010;52.084;5.412;2023-02-28T12:54:44;0.85;;;0.60;;
65924;SDS011;66010;52.084;5.412;2023-02-28T12:57:22;0.98;;;0.60;;
65924;SDS011;66010;52.084;5.412;2023-02-28T12:59:56;0.70;;;0.70;;
65924;SDS011;66010;52.084;5.412;2023-02-28T13:02:31;0.60;;;0.60;;
65924;SDS011;66010;52.084;5.412;2023-02-28T13:12:56;0.65;;;0.63;;
65924;SDS011;66010;52.084;5.412;2023-02-28T13:15:26;1.20;;;0.60;;
65924;SDS011;66010;52.084;5.412;2023-02-28T13:18:03;1.23;;;0.80;;
65924;SDS011;66010;52.084;5.412;2023-02-28T13:20:33;1.63;;;0.52;;
65924;SDS011;66010;52.084;5.412;2023-02-28T13:23:00;3.40;;;0.75;;
65924;SDS011;66010;52.084;5.412;2023-02-28T13:28:00;5.07;;;0.88;;
65924;SDS011;66010;52.084;5.412;2023-02-28T13:33:25;3.50;;;0.85;;
65924;SDS011;66010;52.084;5.412;2023-02-28T13:38:35;2.42;;;0.60;;
65924;SDS011;66010;52.084;5.412;2023-02-28T13:46:28;2.90;;;0.68;;
65924;SDS011;66010;52.084;5.412;2023-02-28T13:48:55;2.70;;;0.80;;
65924;SDS011;66010;52.084;5.412;2023-02-28T13:51:41;2.25;;;0.63;;
65924;SDS011;66010;52.084;5.412;2023-02-28T13:54:14;2.05;;;0.70;;
65924;SDS011;66010;52.084;5.412;2023-02-28T14:04:50;0.70;;;0.60;;
65924;SDS011;66010;52.084;5.412;2023-02-28T14:10:17;1.58;;;0.60;;
65924;SDS011;66010;52.084;5.412;2023-02-28T14:12:57;1.75;;;0.50;;
65924;SDS011;66010;52.084;5.412;2023-02-28T14:15:34;3.20;;;0.52;;
65924;SDS011;66010;52.084;5.412;2023-02-28T14:18:03;1.27;;;0.55;;
65924;SDS011;66010;52.084;5.412;2023-02-28T14:20:32;2.33;;;0.60;;
65924;SDS011;66010;52.084;5.412;2023-02-28T14:25:51;1.10;;;0.50;;
65924;SDS011;66010;52.084;5.412;2023-02-28T14:31:09;1.40;;;0.60;;
65924;SDS011;66010;52.084;5.412;2023-02-28T14:36:24;1.13;;;0.93;;
65924;SDS011;66010;52.084;5.412;2023-02-28T14:38:53;2.47;;;0.70;;
65924;SDS011;66010;52.084;5.412;2023-02-28T14:41:28;2.42;;;1.05;;
65924;SDS011;66010;52.084;5.412;2023-02-28T14:43:56;2.75;;;1.27;;
65924;SDS011;66010;52.084;5.412;2023-02-28T14:46:23;2.80;;;1.48;;
65924;SDS011;66010;52.084;5.412;2023-02-28T14:48:52;2.13;;;1.23;;
65924;SDS011;66010;52.084;5.412;2023-02-28T14:51:19;2.53;;;1.38;;
65924;SDS011;66010;52.084;5.412;2023-02-28T14:53:48;2.80;;;1.10;;
65924;SDS011;66010;52.084;5.412;2023-02-28T14:56:22;2.42;;;1.30;;
65924;SDS011;66010;52.084;5.412;2023-02-28T14:58:53;2.05;;;1.10;;
65924;SDS011;66010;52.084;5.412;2023-02-28T15:01:23;2.42;;;1.30;;
65924;SDS011;66010;52.084;5.412;2023-02-28T15:04:00;3.28;;;1.15;;
65924;SDS011;66010;52.084;5.412;2023-02-28T15:06:27;3.25;;;1.30;;
65924;SDS011;66010;52.084;5.412;2023-02-28T15:09:09;4.05;;;1.40;;
65924;SDS011;66010;52.084;5.412;2023-02-28T15:11:35;7.55;;;1.50;;
65924;SDS011;66010;52.084;5.412;2023-02-28T15:16:36;3.03;;;1.40;;
65924;SDS011;66010;52.084;5.412;2023-02-28T15:19:05;4.15;;;1.60;;
65924;SDS011;66010;52.084;5.412;2023-02-28T15:21:37;4.60;;;1.55;;
65924;SDS011;66010;52.084;5.412;2023-02-28T15:24:05;3.47;;;1.48;;
65924;SDS011;66010;52.084;5.412;2023-02-28T15:26:34;3.55;;;1.40;;
65924;SDS011;66010;52.084;5.412;2023-02-28T15:29:24;4.60;;;1.45;;
65924;SDS011;66010;52.084;5.412;2023-02-28T15:31:55;3.58;;;1.30;;
65924;SDS011;66010;52.084;5.412;2023-02-28T15:34:27;4.53;;;1.48;;
65924;SDS011;66010;52.084;5.412;2023-02-28T15:39:51;5.13;;;1.23;;
65924;SDS011;66010;52.084;5.412;2023-02-28T15:42:18;3.20;;;1.20;;
65924;SDS011;66010;52.084;5.412;2023-02-28T15:44:46;4.55;;;1.50;;
65924;SDS011;66010;52.084;5.412;2023-02-28T15:47:16;3.08;;;1.30;;
65924;SDS011;66010;52.084;5.412;2023-02-28T15:52:18;3.45;;;1.30;;
65924;SDS011;66010;52.084;5.412;2023-02-28T15:54:45;3.10;;;1.35;;
65924;SDS011;66010;52.084;5.412;2023-02-28T15:59:38;3.95;;;1.40;;
65924;SDS011;66010;52.084;5.412;2023-02-28T16:05:00;6.65;;;1.30;;
65924;SDS011;66010;52.084;5.412;2023-02-28T16:07:27;3.22;;;1.30;;
65924;SDS011;66010;52.084;5.412;2023-02-28T16:09:54;3.28;;;1.30;;
65924;SDS011;66010;52.084;5.412;2023-02-28T16:12:20;1.90;;;1.10;;
65924;SDS011;66010;52.084;5.412;2023-02-28T16:14:49;2.92;;;1.23;;
65924;SDS011;66010;52.084;5.412;2023-02-28T16:17:24;3.55;;;1.13;;
65924;SDS011;66010;52.084;5.412;2023-02-28T16:19:51;4.78;;;1.30;;
65924;SDS011;66010;52.084;5.412;2023-02-28T16:22:18;5.15;;;1.40;;
65924;SDS011;66010;52.084;5.412;2023-02-28T16:24:44;2.55;;;1.10;;
65924;SDS011;66010;52.084;5.412;2023-02-28T16:27:15;1.55;;;1.10;;
65924;SDS011;66010;52.084;5.412;2023-02-28T16:29:42;2.35;;;1.10;;
65924;SDS011;66010;52.084;5.412;2023-02-28T16:32:11;2.30;;;1.20;;
65924;SDS011;66010;52.084;5.412;2023-02-28T16:34:38;1.83;;;0.98;;
65924;SDS011;66010;52.084;5.412;2023-02-28T16:37:09;2.45;;;1.10;;
65924;SDS011;66010;52.084;5.412;2023-02-28T16:39:36;3.35;;;1.10;;
65924;SDS011;66010;52.084;5.412;2023-02-28T16:42:03;2.80;;;1.20;;
65924;SDS011;66010;52.084;5.412;2023-02-28T16:44:38;2.80;;;1.20;;
65924;SDS011;66010;52.084;5.412;2023-02-28T16:47:06;3.20;;;1.17;;
65924;SDS011;66010;52.084;5.412;2023-02-28T16:49:32;2.95;;;1.30;;
65924;SDS011;66010;52.084;5.412;2023-02-28T16:51:59;2.53;;;1.05;;
65924;SDS011;66010;52.084;5.412;2023-02-28T16:54:25;3.75;;;1.25;;
65924;SDS011;66010;52.084;5.412;2023-02-28T16:56:52;2.65;;;1.08;;
65924;SDS011;66010;52.084;5.412;2023-02-28T16:59:21;2.67;;;1.08;;
65924;SDS011;66010;52.084;5.412;2023-02-28T17:01:47;2.70;;;1.20;;
65924;SDS011;66010;52.084;5.412;2023-02-28T17:04:15;2.13;;;1.08;;
65924;SDS011;66010;52.084;5.412;2023-02-28T17:06:41;1.65;;;1.10;;
65924;SDS011;66010;52.084;5.412;2023-02-28T17:09:11;3.38;;;1.25;;
65924;SDS011;66010;52.084;5.412;2023-02-28T17:11:41;4.15;;;1.30;;
65924;SDS011;66010;52.084;5.412;2023-02-28T17:14:08;2.63;;;1.30;;
65924;SDS011;66010;52.084;5.412;2023-02-28T17:16:35;2.45;;;1.15;;
65924;SDS011;66010;52.084;5.412;2023-02-28T17:19:03;2.20;;;1.20;;
65924;SDS011;66010;52.084;5.412;2023-02-28T17:21:31;4.07;;;1.30;;
65924;SDS011;66010;52.084;5.412;2023-02-28T17:23:57;3.60;;;1.20;;